createdAt,value
2022-10-22T00:00:29.861Z,88.28
2022-10-22T00:03:31.976Z,87.76
2022-10-22T00:06:34.473Z,87.93
2022-10-22T00:09:36.484Z,88.08
2022-10-22T00:12:38.428Z,88.50
2022-10-22T00:15:40.545Z,88.63
2022-10-22T00:18:42.547Z,89.04
2022-10-22T00:21:44.574Z,88.75
2022-10-22T00:24:46.533Z,89.29
2022-10-22T00:27:49.159Z,89.53
2022-10-22T00:30:59.130Z,89.64
2022-10-22T00:34:01.688Z,89.69
2022-10-22T00:37:03.911Z,89.50
2022-10-22T00:40:06.294Z,89.58
2022-10-22T00:43:12.409Z,90.15
2022-10-22T00:46:14.444Z,89.96
2022-10-22T00:49:16.617Z,90.57
2022-10-22T00:52:19.316Z,90.74
2022-10-22T00:55:22.700Z,90.72
2022-10-22T00:58:29.504Z,90.87
2022-10-22T01:01:32.545Z,91.21
2022-10-22T01:04:34.760Z,90.68
2022-10-22T01:07:44.252Z,91.12
2022-10-22T01:11:04.409Z,90.52
2022-10-22T01:14:46.538Z,90.40
2022-10-22T01:18:01.216Z,90.50
2022-10-22T01:21:23.690Z,90.20
2022-10-22T01:24:42.556Z,90.78
2022-10-22T01:28:01.803Z,90.94
2022-10-22T01:31:06.182Z,91.27
2022-10-22T01:34:10.699Z,91.12
2022-10-22T01:37:15.564Z,90.98
2022-10-22T01:40:19.438Z,91.25
2022-10-22T01:43:21.497Z,91.35
2022-10-22T01:46:27.112Z,91.49
2022-10-22T01:49:54.160Z,91.76
2022-10-22T01:53:11.788Z,91.99
2022-10-22T01:56:42.731Z,92.03
2022-10-22T02:00:02.822Z,91.97
2022-10-22T02:03:17.434Z,92.03
2022-10-22T02:06:24.972Z,92.23
2022-10-22T02:09:29.541Z,92.43
2022-10-22T02:12:34.045Z,92.61
2022-10-22T02:15:38.705Z,92.54
2022-10-22T02:18:44.572Z,92.87
2022-10-22T02:21:46.589Z,92.96
2022-10-22T02:24:49.480Z,92.93
2022-10-22T02:28:25.720Z,92.79
2022-10-22T02:31:34.116Z,93.11
2022-10-22T02:34:36.340Z,92.90
2022-10-22T02:37:40.393Z,93.65
2022-10-22T02:40:42.623Z,93.81
2022-10-22T02:43:56.282Z,93.70
2022-10-22T02:46:59.425Z,93.98
2022-10-22T02:50:01.839Z,94.42
2022-10-22T02:53:04.918Z,94.28
2022-10-22T02:56:07.308Z,94.18
2022-10-22T02:59:09.487Z,94.43
2022-10-22T03:02:11.471Z,94.72
2022-10-22T03:05:13.704Z,94.92
2022-10-22T03:08:15.689Z,94.75
2022-10-22T03:11:17.665Z,95.01
2022-10-22T03:14:19.801Z,94.96
2022-10-22T03:17:22.337Z,94.59
2022-10-22T03:20:24.326Z,94.68
2022-10-22T03:23:26.344Z,94.58
2022-10-22T03:26:28.445Z,95.31
2022-10-22T03:29:32.156Z,94.94
2022-10-22T03:32:34.205Z,95.43
2022-10-22T03:35:42.890Z,95.17
2022-10-22T03:38:45.520Z,95.57
2022-10-22T03:41:49.638Z,95.40
2022-10-22T03:44:51.649Z,95.39
2022-10-22T03:47:53.719Z,95.60
2022-10-22T03:50:55.778Z,95.63
2022-10-22T03:53:57.828Z,95.24
2022-10-22T03:56:59.869Z,95.60
2022-10-22T04:00:02.005Z,95.44
2022-10-22T04:03:07.216Z,96.17
2022-10-22T04:06:12.069Z,95.92
2022-10-22T04:09:14.133Z,95.99
2022-10-22T04:12:16.220Z,96.59
2022-10-22T04:15:18.529Z,96.43
2022-10-22T04:18:21.455Z,96.88
2022-10-22T04:21:23.488Z,96.72
2022-10-22T04:24:25.744Z,96.87
2022-10-22T04:27:34.818Z,96.55
2022-10-22T04:30:37.242Z,95.94
2022-10-22T04:33:39.760Z,95.81
2022-10-22T04:36:41.744Z,96.16
2022-10-22T04:39:43.762Z,96.33
2022-10-22T04:42:45.856Z,96.30
2022-10-22T04:45:48.066Z,95.77
2022-10-22T04:48:51.224Z,95.86
2022-10-22T04:51:53.222Z,96.55
2022-10-22T04:54:55.224Z,96.43
2022-10-22T04:57:57.205Z,96.34
2022-10-22T05:00:59.280Z,96.13
2022-10-22T05:04:03.318Z,96.63
2022-10-22T05:07:05.444Z,96.60
2022-10-22T05:10:08.113Z,96.77
2022-10-22T05:13:10.059Z,96.78
2022-10-22T05:16:13.570Z,96.88
2022-10-22T05:19:20.481Z,96.62
2022-10-22T05:22:22.490Z,97.01
2022-10-22T05:25:24.499Z,97.02
2022-10-22T05:28:26.665Z,96.52
2022-10-22T05:31:29.135Z,97.10
2022-10-22T05:34:31.089Z,97.04
2022-10-22T05:37:33.088Z,96.92
2022-10-22T05:40:35.097Z,96.61
2022-10-22T05:43:38.113Z,96.64
2022-10-22T05:46:40.970Z,96.87
2022-10-22T05:49:42.932Z,96.28
2022-10-22T05:52:44.968Z,96.96
2022-10-22T05:55:46.903Z,96.85
2022-10-22T05:58:49.462Z,96.87
2022-10-22T06:01:51.939Z,96.72
2022-10-22T06:04:53.969Z,96.48
2022-10-22T06:07:57.038Z,96.55
2022-10-22T06:10:59.874Z,96.32
2022-10-22T06:14:01.838Z,96.47
2022-10-22T06:17:03.823Z,96.22
2022-10-22T06:20:06.457Z,96.00
2022-10-22T06:23:08.521Z,95.68
2022-10-22T06:26:11.471Z,95.89
2022-10-22T06:29:13.455Z,95.98
2022-10-22T06:32:15.378Z,95.50
2022-10-22T06:35:17.545Z,95.43
2022-10-22T06:38:19.711Z,94.63
2022-10-22T06:41:24.383Z,94.31
2022-10-22T06:44:29.459Z,93.86
2022-10-22T06:47:33.532Z,93.34
2022-10-22T06:50:35.619Z,93.02
2022-10-22T06:53:39.462Z,92.15
2022-10-22T06:56:41.561Z,91.52
2022-10-22T06:59:43.600Z,89.89
2022-10-22T07:02:56.420Z,89.25
2022-10-22T07:06:02.843Z,87.77
2022-10-22T07:09:04.988Z,87.88
2022-10-22T07:12:07.221Z,87.13
2022-10-22T07:15:09.641Z,86.85
2022-10-22T07:18:11.721Z,87.07
2022-10-22T07:21:15.642Z,86.10
2022-10-22T07:24:17.726Z,86.27
2022-10-22T07:27:19.762Z,86.57
2022-10-22T07:30:21.791Z,86.47
2022-10-22T07:33:23.712Z,86.18
2022-10-22T07:36:26.006Z,86.83
2022-10-22T07:39:29.058Z,86.66
2022-10-22T07:42:31.111Z,85.53
2022-10-22T07:45:33.872Z,83.82
2022-10-22T07:48:37.782Z,82.51
2022-10-22T07:51:39.889Z,82.12
2022-10-22T07:54:41.961Z,81.84
2022-10-22T07:57:43.957Z,82.33
2022-10-22T08:00:46.461Z,82.27
2022-10-22T08:03:49.260Z,82.21
2022-10-22T08:06:51.398Z,82.80
2022-10-22T08:09:53.418Z,82.39
2022-10-22T08:12:56.095Z,82.38
2022-10-22T08:16:01.580Z,82.46
2022-10-22T08:19:03.594Z,82.88
2022-10-22T08:22:05.681Z,82.71
2022-10-22T08:25:08.167Z,82.60
2022-10-22T08:28:10.216Z,82.94
2022-10-22T08:31:12.708Z,83.23
2022-10-22T08:34:15.004Z,83.53
2022-10-22T08:37:18.049Z,84.00
2022-10-22T08:40:34.199Z,84.90
2022-10-22T08:44:04.773Z,85.68
2022-10-22T08:47:22.380Z,86.57
2022-10-22T08:50:31.484Z,100.00
2022-10-22T08:54:08.012Z,100.00
2022-10-22T08:57:10.000Z,100.00
2022-10-22T09:00:33.504Z,100.00
2022-10-22T09:03:44.396Z,100.00
2022-10-22T09:06:49.556Z,100.00
2022-10-22T09:09:55.772Z,100.00
2022-10-22T09:12:57.919Z,100.00
2022-10-22T09:16:11.529Z,100.00
2022-10-22T09:19:55.477Z,100.00
2022-10-22T09:23:06.389Z,100.00
2022-10-22T09:26:16.674Z,100.00
2022-10-22T09:29:24.723Z,100.00
2022-10-22T09:32:27.593Z,100.00
2022-10-22T09:35:34.821Z,100.00
2022-10-22T09:38:49.806Z,100.00
2022-10-22T09:41:52.063Z,100.00
2022-10-22T09:44:56.617Z,100.00
2022-10-22T09:48:30.680Z,100.00
2022-10-22T09:51:55.310Z,100.00
2022-10-22T09:55:01.851Z,100.00
2022-10-22T09:58:03.932Z,100.00
2022-10-22T10:01:06.071Z,100.00
2022-10-22T10:04:11.229Z,100.00
2022-10-22T10:07:30.342Z,100.00
2022-10-22T10:10:35.368Z,100.00
2022-10-22T10:13:38.757Z,100.00
2022-10-22T10:17:05.317Z,100.00
2022-10-22T10:20:26.818Z,100.00
2022-10-22T10:23:56.885Z,100.00
2022-10-22T10:27:10.574Z,100.00
2022-10-22T10:30:21.694Z,100.00
2022-10-22T10:33:36.762Z,100.00
2022-10-22T10:36:58.962Z,100.00
2022-10-22T10:40:31.831Z,100.00
2022-10-22T10:44:05.968Z,100.00
2022-10-22T10:47:29.389Z,100.00
2022-10-22T10:50:53.663Z,100.00
2022-10-22T10:54:27.920Z,100.00
2022-10-22T10:57:54.013Z,100.00
2022-10-22T11:01:03.651Z,100.00
2022-10-22T11:04:53.297Z,100.00
2022-10-22T11:08:03.503Z,100.00
2022-10-22T11:11:14.784Z,100.00
2022-10-22T11:14:31.470Z,100.00
2022-10-22T11:17:44.715Z,100.00
2022-10-22T11:20:55.535Z,100.00
2022-10-22T11:24:22.078Z,100.00
2022-10-22T11:27:29.257Z,100.00
2022-10-22T11:30:38.033Z,100.00
2022-10-22T11:34:00.450Z,100.00
2022-10-22T11:37:14.143Z,100.00
2022-10-22T11:40:18.837Z,100.00
2022-10-22T11:43:26.909Z,100.00
2022-10-22T11:46:40.551Z,100.00
2022-10-22T11:49:58.586Z,100.00
2022-10-22T11:53:08.131Z,100.00
2022-10-22T11:56:13.352Z,100.00
2022-10-22T11:59:38.670Z,100.00
2022-10-22T12:02:43.230Z,100.00
2022-10-22T12:05:46.761Z,100.00
2022-10-22T12:08:54.771Z,100.00
2022-10-22T12:12:05.021Z,100.00
2022-10-22T12:15:27.331Z,100.00
2022-10-22T12:18:41.626Z,100.00
2022-10-22T12:21:49.029Z,100.00
2022-10-22T12:24:57.332Z,100.00
2022-10-22T12:28:01.123Z,100.00
2022-10-22T12:31:03.823Z,100.00
2022-10-22T12:34:06.292Z,100.00
2022-10-22T12:37:10.988Z,100.00
2022-10-22T12:40:25.403Z,100.00
2022-10-22T12:43:29.989Z,100.00
2022-10-22T12:46:34.774Z,100.00
2022-10-22T12:49:41.020Z,100.00
2022-10-22T12:52:43.857Z,100.00
2022-10-22T12:55:52.183Z,100.00
2022-10-22T12:59:02.375Z,100.00
2022-10-22T13:02:25.790Z,100.00
2022-10-22T13:05:34.302Z,100.00
2022-10-22T13:08:39.491Z,100.00
2022-10-22T13:11:50.108Z,100.00
2022-10-22T13:14:52.231Z,100.00
2022-10-22T13:18:18.737Z,100.00
2022-10-22T13:21:35.199Z,100.00
2022-10-22T13:24:49.915Z,100.00
2022-10-22T13:27:54.024Z,100.00
2022-10-22T13:31:17.715Z,100.00
2022-10-22T13:34:25.082Z,100.00
2022-10-22T13:37:29.068Z,100.00
2022-10-22T13:40:31.196Z,100.00
2022-10-22T13:43:33.270Z,100.00
2022-10-22T13:46:42.544Z,100.00
2022-10-22T13:49:46.999Z,100.00
2022-10-22T13:52:55.211Z,100.00
2022-10-22T13:55:57.533Z,100.00
2022-10-22T13:58:59.654Z,100.00
2022-10-22T14:02:06.613Z,100.00
2022-10-22T14:05:09.873Z,100.00
2022-10-22T14:08:14.296Z,100.00
2022-10-22T14:11:17.509Z,100.00
2022-10-22T14:14:19.524Z,100.00
2022-10-22T14:17:21.663Z,100.00
2022-10-22T14:20:26.997Z,100.00
2022-10-22T14:23:30.943Z,100.00
2022-10-22T14:26:33.928Z,100.00
2022-10-22T14:29:35.908Z,100.00
2022-10-22T14:32:38.270Z,100.00
2022-10-22T14:35:40.404Z,100.00
2022-10-22T14:38:49.439Z,100.00
2022-10-22T14:41:51.390Z,100.00
2022-10-22T14:44:53.480Z,100.00
2022-10-22T14:47:55.889Z,100.00
2022-10-22T14:50:57.933Z,100.00
2022-10-22T14:54:00.005Z,100.00
2022-10-22T14:57:05.363Z,100.00
2022-10-22T15:00:09.914Z,100.00
2022-10-22T15:03:11.970Z,100.00
2022-10-22T15:06:18.040Z,100.00
2022-10-22T15:09:20.111Z,100.00
2022-10-22T15:12:22.134Z,100.00
2022-10-22T15:15:25.590Z,100.00
2022-10-22T15:18:29.991Z,100.00
2022-10-22T15:21:32.174Z,100.00
2022-10-22T15:24:34.320Z,100.00
2022-10-22T15:27:36.501Z,100.00
2022-10-22T15:30:38.886Z,100.00
2022-10-22T15:33:43.725Z,100.00
2022-10-22T15:36:45.896Z,100.00
2022-10-22T15:39:48.108Z,100.00
2022-10-22T15:42:50.349Z,100.00
2022-10-22T15:46:13.689Z,100.00
2022-10-22T15:49:15.949Z,100.00
2022-10-22T15:52:18.096Z,100.00
2022-10-22T15:55:20.665Z,100.00
2022-10-22T15:58:22.786Z,100.00
2022-10-22T16:01:26.398Z,100.00
2022-10-22T16:04:29.754Z,100.00
2022-10-22T16:07:32.219Z,100.00
2022-10-22T16:10:34.400Z,100.00
2022-10-22T16:13:37.983Z,100.00
2022-10-22T16:16:43.934Z,100.00
2022-10-22T16:19:47.572Z,100.00
2022-10-22T16:22:50.897Z,100.00
2022-10-22T16:25:53.459Z,100.00
2022-10-22T16:28:55.774Z,100.00
2022-10-22T16:31:58.232Z,100.00
2022-10-22T16:35:00.710Z,100.00
2022-10-22T16:38:03.249Z,100.00
2022-10-22T16:41:35.319Z,100.00
2022-10-22T16:44:37.691Z,100.00
2022-10-22T16:47:40.960Z,100.00
2022-10-22T16:50:43.822Z,100.00
2022-10-22T16:53:46.847Z,100.00
2022-10-22T16:56:49.570Z,100.00
2022-10-22T16:59:52.045Z,100.00
2022-10-22T17:02:56.767Z,80.54
2022-10-22T17:06:00.999Z,80.90
2022-10-22T17:09:04.630Z,81.31
2022-10-22T17:12:08.704Z,81.33
2022-10-22T17:15:11.764Z,81.25
2022-10-22T17:18:14.948Z,81.23
2022-10-22T17:21:18.699Z,82.00
2022-10-22T17:24:21.612Z,82.51
2022-10-22T17:27:24.711Z,82.59
2022-10-22T17:30:29.074Z,82.89
2022-10-22T17:33:32.490Z,83.81
2022-10-22T17:36:36.327Z,84.67
2022-10-22T17:39:38.744Z,85.32
2022-10-22T17:42:41.757Z,85.57
2022-10-22T17:45:44.731Z,87.21
2022-10-22T17:49:02.677Z,86.46
2022-10-22T17:52:05.760Z,86.04
2022-10-22T17:55:08.687Z,86.16
2022-10-22T17:58:11.574Z,86.13
2022-10-22T18:01:24.478Z,86.88
2022-10-22T18:04:26.967Z,86.55
2022-10-22T18:07:32.348Z,86.96
2022-10-22T18:10:40.303Z,86.62
2022-10-22T18:13:43.060Z,86.18
2022-10-22T18:16:46.496Z,86.76
2022-10-22T18:19:50.451Z,86.75
2022-10-22T18:22:55.390Z,86.07
2022-10-22T18:25:58.451Z,85.71
2022-10-22T18:29:02.338Z,85.30
2022-10-22T18:32:12.144Z,84.67
2022-10-22T18:35:18.539Z,100.00
2022-10-22T18:38:29.246Z,100.00
2022-10-22T18:41:33.604Z,100.00
2022-10-22T18:44:37.060Z,100.00
2022-10-22T18:47:43.360Z,100.00
2022-10-22T18:50:47.874Z,100.00
2022-10-22T18:54:05.229Z,100.00
2022-10-22T18:57:16.406Z,84.89
2022-10-22T19:00:19.387Z,100.00
2022-10-22T19:03:22.459Z,100.00
2022-10-22T19:06:34.509Z,100.00
2022-10-22T19:09:40.656Z,100.00
2022-10-22T19:12:42.845Z,100.00
2022-10-22T19:15:45.421Z,100.00
2022-10-22T19:18:47.533Z,100.00
2022-10-22T19:21:50.551Z,100.00
2022-10-22T19:24:53.768Z,100.00
2022-10-22T19:27:56.095Z,100.00
2022-10-22T19:30:59.288Z,100.00
2022-10-22T19:34:02.832Z,100.00
2022-10-22T19:37:05.552Z,100.00
2022-10-22T19:40:09.635Z,100.00
2022-10-22T19:43:13.545Z,85.40
2022-10-22T19:46:19.040Z,85.96
2022-10-22T19:49:22.989Z,85.88
2022-10-22T19:52:26.331Z,86.33
2022-10-22T19:55:29.310Z,87.16
2022-10-22T19:58:31.852Z,87.14
2022-10-22T20:01:34.357Z,87.01
2022-10-22T20:04:37.040Z,87.34
2022-10-22T20:07:39.472Z,87.83
2022-10-22T20:10:41.935Z,88.35
2022-10-22T20:13:46.755Z,87.60
2022-10-22T20:16:52.121Z,87.47
2022-10-22T20:19:54.237Z,87.77
2022-10-22T20:22:56.589Z,88.51
2022-10-22T20:26:00.143Z,88.88
2022-10-22T20:29:02.424Z,89.51
2022-10-22T20:32:06.747Z,89.06
2022-10-22T20:35:10.888Z,88.05
2022-10-22T20:38:15.341Z,87.92
2022-10-22T20:41:23.196Z,100.00
2022-10-22T20:44:25.756Z,100.00
2022-10-22T20:47:39.155Z,87.65
2022-10-22T20:50:50.332Z,100.00
2022-10-22T20:53:52.902Z,100.00
2022-10-22T20:56:55.622Z,100.00
2022-10-22T20:59:58.473Z,100.00
2022-10-22T21:03:02.366Z,100.00
2022-10-22T21:06:06.116Z,100.00
2022-10-22T21:09:12.167Z,100.00
2022-10-22T21:12:14.207Z,100.00
2022-10-22T21:15:16.338Z,100.00
2022-10-22T21:18:18.393Z,100.00
2022-10-22T21:21:20.483Z,100.00
2022-10-22T21:24:24.940Z,100.00
2022-10-22T21:27:27.052Z,100.00
2022-10-22T21:30:29.073Z,100.00
2022-10-22T21:33:31.528Z,100.00
2022-10-22T21:36:33.534Z,100.00
2022-10-22T21:39:41.058Z,100.00
2022-10-22T21:42:44.296Z,100.00
2022-10-22T21:45:46.579Z,100.00
2022-10-22T21:48:56.362Z,100.00
2022-10-22T21:52:00.306Z,100.00
2022-10-22T21:55:02.322Z,100.00
2022-10-22T21:58:04.254Z,100.00
2022-10-22T22:01:06.394Z,100.00
2022-10-22T22:04:08.453Z,100.00
2022-10-22T22:07:10.464Z,100.00
2022-10-22T22:10:12.673Z,100.00
2022-10-22T22:13:14.724Z,100.00
2022-10-22T22:16:23.950Z,100.00
2022-10-22T22:19:29.358Z,100.00
2022-10-22T22:22:31.378Z,100.00
2022-10-22T22:25:33.440Z,100.00
2022-10-22T22:28:36.042Z,100.00
2022-10-22T22:31:38.060Z,100.00
2022-10-22T22:34:42.585Z,100.00
2022-10-22T22:37:44.650Z,100.00
2022-10-22T22:40:46.733Z,100.00
2022-10-22T22:43:48.760Z,100.00
2022-10-22T22:46:50.873Z,100.00
2022-10-22T22:49:52.918Z,100.00
2022-10-22T22:52:55.013Z,100.00
2022-10-22T22:56:18.819Z,100.00
2022-10-22T22:59:22.073Z,100.00
2022-10-22T23:02:24.227Z,100.00
2022-10-22T23:05:26.259Z,100.00
2022-10-22T23:08:28.211Z,100.00
2022-10-22T23:11:30.221Z,100.00
2022-10-22T23:14:32.202Z,100.00
2022-10-22T23:17:34.124Z,100.00
2022-10-22T23:20:39.145Z,100.00
2022-10-22T23:23:46.715Z,100.00
2022-10-22T23:26:50.980Z,100.00
2022-10-22T23:29:53.000Z,100.00
2022-10-22T23:32:55.027Z,100.00
2022-10-22T23:35:57.144Z,100.00
2022-10-22T23:38:59.192Z,100.00
2022-10-22T23:42:01.269Z,100.00
2022-10-22T23:45:03.393Z,100.00
2022-10-22T23:48:05.620Z,100.00
2022-10-22T23:51:13.624Z,100.00
2022-10-22T23:54:20.834Z,100.00
2022-10-22T23:57:23.337Z,100.00
